createdAt,value
2018-02-07T00:00:19.105Z,17.30
2018-02-07T00:01:19.064Z,20.60
2018-02-07T00:02:19.044Z,19.20
2018-02-07T00:03:19.001Z,19.90
2018-02-07T00:04:18.963Z,18.20
2018-02-07T00:05:18.924Z,22.20
2018-02-07T00:06:18.886Z,21.50
2018-02-07T00:07:18.847Z,19.10
2018-02-07T00:08:18.809Z,19.30
2018-02-07T00:09:18.786Z,21.80
2018-02-07T00:10:18.750Z,18.80
2018-02-07T00:11:18.741Z,18.70
2018-02-07T00:12:18.671Z,17.50
2018-02-07T00:13:18.636Z,19.40
2018-02-07T00:14:18.897Z,21.60
2018-02-07T00:15:18.563Z,20.20
2018-02-07T00:16:18.527Z,18.10
2018-02-07T00:17:18.484Z,18.70
2018-02-07T00:18:18.449Z,18.90
2018-02-07T00:19:18.664Z,17.50
2018-02-07T00:20:18.374Z,17.20
2018-02-07T00:21:18.337Z,19.20
2018-02-07T00:22:18.302Z,18.70
2018-02-07T00:23:18.273Z,18.60
2018-02-07T00:24:18.230Z,19.20
2018-02-07T00:25:18.197Z,17.20
2018-02-07T00:26:18.164Z,18.90
2018-02-07T00:27:18.125Z,18.10
2018-02-07T00:28:18.079Z,20.60
2018-02-07T00:29:18.048Z,18.50
2018-02-07T00:30:18.017Z,20.60
2018-02-07T00:31:17.982Z,19.80
2018-02-07T00:32:17.943Z,17.70
2018-02-07T00:33:17.904Z,18.90
2018-02-07T00:34:17.866Z,18.00
2018-02-07T00:35:17.833Z,22.50
2018-02-07T00:36:17.794Z,18.50
2018-02-07T00:37:17.754Z,18.10
2018-02-07T00:38:17.720Z,18.00
2018-02-07T00:39:17.699Z,18.30
2018-02-07T00:40:17.651Z,19.70
2018-02-07T00:41:17.614Z,17.40
2018-02-07T00:42:17.582Z,20.10
2018-02-07T00:43:17.539Z,16.90
2018-02-07T00:44:17.500Z,20.60
2018-02-07T00:45:17.474Z,18.20
2018-02-07T00:46:17.432Z,18.60
2018-02-07T00:47:17.392Z,19.00
2018-02-07T00:48:17.359Z,23.30
2018-02-07T00:49:17.573Z,18.80
2018-02-07T00:50:17.287Z,23.20
2018-02-07T00:51:17.254Z,19.80
2018-02-07T00:52:17.215Z,19.30
2018-02-07T00:53:17.182Z,18.40
2018-02-07T00:54:17.143Z,22.90
2018-02-07T00:55:17.699Z,21.50
2018-02-07T00:56:17.064Z,17.10
2018-02-07T00:57:17.034Z,21.60
2018-02-07T00:58:16.997Z,18.40
2018-02-07T00:59:16.953Z,18.50
2018-02-07T01:00:16.921Z,20.50
2018-02-07T01:01:16.883Z,18.30
2018-02-07T01:02:16.854Z,20.60
2018-02-07T01:03:16.817Z,20.60
2018-02-07T01:04:16.780Z,19.30
2018-02-07T01:05:16.738Z,20.10
2018-02-07T01:06:16.698Z,17.90
2018-02-07T01:07:16.666Z,21.20
2018-02-07T01:08:16.637Z,21.50
2018-02-07T01:09:16.593Z,22.20
2018-02-07T01:10:16.556Z,19.10
2018-02-07T01:11:16.517Z,20.60
2018-02-07T01:12:16.732Z,24.50
2018-02-07T01:13:16.449Z,20.90
2018-02-07T01:14:16.413Z,20.30
2018-02-07T01:15:16.373Z,20.90
2018-02-07T01:16:16.334Z,21.10
2018-02-07T01:17:16.302Z,17.10
2018-02-07T01:18:16.265Z,19.40
2018-02-07T01:19:16.242Z,21.10
2018-02-07T01:20:16.194Z,22.10
2018-02-07T01:21:16.150Z,20.50
2018-02-07T01:22:16.114Z,18.70
2018-02-07T01:23:16.090Z,17.20
2018-02-07T01:24:16.049Z,18.50
2018-02-07T01:25:16.011Z,16.20
2018-02-07T01:26:15.975Z,20.80
2018-02-07T01:27:15.939Z,16.60
2018-02-07T01:28:15.893Z,16.90
2018-02-07T01:29:16.113Z,17.80
2018-02-07T01:30:15.831Z,17.70
2018-02-07T01:31:15.790Z,18.80
2018-02-07T01:32:15.755Z,23.20
2018-02-07T01:33:15.722Z,18.50
2018-02-07T01:34:15.686Z,18.00
2018-02-07T01:35:15.891Z,21.30
2018-02-07T01:36:15.607Z,18.50
2018-02-07T01:37:15.573Z,19.30
2018-02-07T01:38:15.537Z,20.90
2018-02-07T01:39:15.497Z,20.70
2018-02-07T01:40:15.459Z,19.70
2018-02-07T01:41:15.675Z,19.30
2018-02-07T01:42:15.392Z,20.60
2018-02-07T01:43:15.356Z,21.30
2018-02-07T01:44:15.317Z,20.10
2018-02-07T01:45:15.284Z,19.50
2018-02-07T01:46:15.249Z,21.70
2018-02-07T01:47:15.510Z,24.20
2018-02-07T01:48:15.174Z,19.70
2018-02-07T01:49:15.131Z,19.90
2018-02-07T01:50:15.097Z,19.70
2018-02-07T01:51:15.062Z,19.90
2018-02-07T01:52:15.020Z,20.40
2018-02-07T01:53:14.986Z,19.40
2018-02-07T01:54:14.950Z,19.70
2018-02-07T01:55:14.914Z,17.40
2018-02-07T01:56:14.874Z,17.80
2018-02-07T01:57:14.847Z,19.40
2018-02-07T01:58:14.835Z,19.60
2018-02-07T01:59:14.774Z,18.50
2018-02-07T02:00:14.773Z,21.50
2018-02-07T02:01:14.688Z,20.00
2018-02-07T02:02:14.654Z,18.70
2018-02-07T02:03:14.622Z,19.80
2018-02-07T02:04:14.596Z,18.80
2018-02-07T02:05:14.544Z,21.40
2018-02-07T02:06:14.511Z,19.90
2018-02-07T02:07:14.472Z,22.40
2018-02-07T02:08:14.434Z,20.50
2018-02-07T02:09:14.411Z,20.10
2018-02-07T02:10:14.367Z,19.20
2018-02-07T02:11:14.332Z,21.20
2018-02-07T02:12:14.290Z,22.00
2018-02-07T02:13:14.260Z,18.70
2018-02-07T02:14:14.228Z,20.20
2018-02-07T02:15:14.188Z,20.90
2018-02-07T02:16:14.448Z,19.20
2018-02-07T02:17:14.112Z,20.40
2018-02-07T02:18:14.069Z,21.80
2018-02-07T02:19:14.054Z,24.80
2018-02-07T02:20:14.007Z,21.50
2018-02-07T02:21:13.962Z,19.20
2018-02-07T02:22:14.184Z,19.10
2018-02-07T02:23:13.888Z,21.80
2018-02-07T02:24:13.850Z,18.90
2018-02-07T02:25:13.820Z,21.90
2018-02-07T02:26:13.785Z,23.00
2018-02-07T02:27:13.742Z,22.30
2018-02-07T02:28:13.703Z,22.00
2018-02-07T02:29:13.670Z,19.10
2018-02-07T02:30:13.635Z,18.40
2018-02-07T02:31:13.602Z,19.00
2018-02-07T02:32:13.565Z,25.70
2018-02-07T02:33:13.524Z,20.40
2018-02-07T02:34:13.790Z,20.90
2018-02-07T02:35:13.458Z,19.80
2018-02-07T02:36:13.415Z,20.30
2018-02-07T02:37:13.377Z,21.50
2018-02-07T02:38:13.337Z,23.00
2018-02-07T02:39:13.307Z,23.00
2018-02-07T02:40:13.265Z,20.70
2018-02-07T02:41:13.231Z,23.40
2018-02-07T02:42:13.197Z,21.90
2018-02-07T02:43:13.158Z,23.00
2018-02-07T02:44:13.121Z,22.10
2018-02-07T02:45:13.384Z,21.80
2018-02-07T02:46:13.051Z,22.00
2018-02-07T02:47:13.014Z,22.80
2018-02-07T02:48:12.976Z,21.70
2018-02-07T02:49:12.937Z,21.10
2018-02-07T02:50:12.899Z,21.10
2018-02-07T02:51:13.167Z,22.60
2018-02-07T02:52:12.830Z,18.40
2018-02-07T02:53:12.791Z,19.70
2018-02-07T02:54:12.750Z,22.70
2018-02-07T02:55:12.720Z,20.70
2018-02-07T02:56:12.682Z,24.20
2018-02-07T02:57:12.917Z,23.00
2018-02-07T02:58:12.612Z,20.50
2018-02-07T02:59:12.565Z,21.30
2018-02-07T03:00:12.535Z,21.40
2018-02-07T03:01:12.500Z,21.20
2018-02-07T03:02:12.467Z,21.10
2018-02-07T03:03:12.429Z,20.20
2018-02-07T03:04:12.390Z,25.30
2018-02-07T03:05:12.347Z,20.50
2018-02-07T03:06:12.311Z,23.10
2018-02-07T03:07:12.279Z,21.30
2018-02-07T03:08:12.240Z,21.40
2018-02-07T03:09:12.452Z,21.20
2018-02-07T03:10:12.167Z,25.40
2018-02-07T03:11:12.130Z,21.80
2018-02-07T03:12:12.094Z,21.60
2018-02-07T03:13:12.067Z,23.10
2018-02-07T03:14:12.023Z,20.80
2018-02-07T03:15:12.281Z,22.40
2018-02-07T03:16:11.952Z,21.40
2018-02-07T03:17:11.916Z,21.60
2018-02-07T03:18:11.881Z,23.40
2018-02-07T03:19:11.834Z,23.20
2018-02-07T03:20:11.814Z,24.80
2018-02-07T03:21:12.061Z,22.10
2018-02-07T03:22:11.726Z,20.80
2018-02-07T03:23:11.688Z,23.70
2018-02-07T03:24:11.656Z,22.10
2018-02-07T03:25:11.618Z,24.20
2018-02-07T03:26:11.582Z,23.30
2018-02-07T03:27:11.539Z,23.40
2018-02-07T03:28:11.504Z,21.80
2018-02-07T03:29:11.477Z,19.80
2018-02-07T03:30:11.435Z,22.50
2018-02-07T03:31:11.390Z,23.80
2018-02-07T03:32:11.357Z,24.10
2018-02-07T03:33:11.628Z,24.80
2018-02-07T03:34:11.291Z,21.40
2018-02-07T03:35:11.250Z,21.70
2018-02-07T03:36:11.212Z,21.00
2018-02-07T03:37:11.184Z,22.50
2018-02-07T03:38:11.137Z,21.80
2018-02-07T03:39:11.102Z,22.30
2018-02-07T03:40:11.062Z,24.30
2018-02-07T03:41:11.074Z,22.20
2018-02-07T03:42:10.992Z,22.20
2018-02-07T03:43:10.956Z,23.70
2018-02-07T03:44:10.914Z,21.50
2018-02-07T03:45:10.876Z,25.30
2018-02-07T03:46:10.837Z,25.30
2018-02-07T03:47:10.821Z,21.70
2018-02-07T03:48:10.773Z,24.50
2018-02-07T03:49:10.732Z,22.30
2018-02-07T03:50:11.142Z,26.70
2018-02-07T03:51:10.657Z,25.10
2018-02-07T03:52:10.619Z,25.90
2018-02-07T03:53:10.588Z,27.60
2018-02-07T03:54:10.553Z,25.70
2018-02-07T03:55:10.506Z,22.10
2018-02-07T03:56:10.477Z,22.60
2018-02-07T03:57:10.436Z,22.70
2018-02-07T03:58:10.407Z,23.80
2018-02-07T03:59:10.369Z,22.20
2018-02-07T04:00:10.338Z,23.20
2018-02-07T04:01:10.295Z,22.50
2018-02-07T04:02:10.253Z,23.60
2018-02-07T04:03:10.222Z,25.30
2018-02-07T04:04:10.182Z,26.30
2018-02-07T04:05:10.142Z,23.30
2018-02-07T04:06:10.105Z,27.60
2018-02-07T04:07:10.070Z,23.90
2018-02-07T04:08:10.029Z,23.40
2018-02-07T04:09:09.998Z,23.80
2018-02-07T04:10:09.963Z,22.90
2018-02-07T04:11:09.926Z,25.70
2018-02-07T04:12:09.887Z,25.10
2018-02-07T04:13:10.101Z,23.80
2018-02-07T04:14:09.814Z,25.60
2018-02-07T04:15:09.774Z,25.60
2018-02-07T04:16:09.740Z,25.30
2018-02-07T04:17:09.695Z,24.40
2018-02-07T04:18:09.664Z,25.50
2018-02-07T04:19:10.036Z,26.60
2018-02-07T04:20:09.596Z,24.40
2018-02-07T04:21:09.551Z,25.20
2018-02-07T04:22:09.515Z,23.90
2018-02-07T04:23:09.481Z,22.90
2018-02-07T04:24:09.445Z,27.50
2018-02-07T04:25:09.755Z,25.80
2018-02-07T04:26:09.373Z,25.00
2018-02-07T04:27:09.335Z,24.80
2018-02-07T04:28:09.294Z,27.60
2018-02-07T04:29:09.271Z,23.20
2018-02-07T04:30:09.224Z,24.40
2018-02-07T04:31:09.190Z,26.40
2018-02-07T04:32:09.152Z,23.60
2018-02-07T04:33:09.110Z,23.30
2018-02-07T04:34:09.077Z,25.40
2018-02-07T04:35:09.040Z,27.70
2018-02-07T04:36:09.350Z,26.10
2018-02-07T04:37:08.964Z,24.00
2018-02-07T04:38:08.933Z,27.00
2018-02-07T04:39:09.139Z,23.70
2018-02-07T04:40:08.850Z,28.50
2018-02-07T04:41:08.818Z,30.90
2018-02-07T04:42:09.037Z,30.10
2018-02-07T04:43:08.742Z,27.80
2018-02-07T04:44:08.700Z,29.80
2018-02-07T04:45:08.671Z,26.70
2018-02-07T04:46:08.630Z,28.40
2018-02-07T04:47:08.595Z,27.50
2018-02-07T04:48:08.557Z,29.60
2018-02-07T04:49:08.521Z,32.30
2018-02-07T04:50:08.484Z,28.50
2018-02-07T04:51:08.452Z,30.60
2018-02-07T04:52:08.408Z,28.70
2018-02-07T04:53:08.368Z,24.50
2018-02-07T04:54:08.332Z,26.70
2018-02-07T04:55:08.298Z,27.00
2018-02-07T04:56:08.258Z,26.70
2018-02-07T04:57:08.223Z,28.00
2018-02-07T04:58:08.188Z,28.50
2018-02-07T04:59:08.148Z,28.10
2018-02-07T05:00:08.117Z,29.20
2018-02-07T05:01:08.080Z,30.60
2018-02-07T05:02:08.048Z,29.50
2018-02-07T05:03:08.000Z,27.10
2018-02-07T05:04:07.965Z,29.20
2018-02-07T05:05:07.929Z,30.80
2018-02-07T05:06:07.887Z,26.60
2018-02-07T05:07:07.858Z,26.90
2018-02-07T05:08:07.820Z,31.40
2018-02-07T05:09:07.775Z,33.00
2018-02-07T05:10:07.740Z,26.30
2018-02-07T05:11:07.698Z,28.00
2018-02-07T05:12:07.965Z,28.20
2018-02-07T05:13:07.639Z,30.10
2018-02-07T05:14:07.597Z,30.20
2018-02-07T05:15:07.555Z,32.00
2018-02-07T05:16:07.516Z,33.30
2018-02-07T05:17:07.490Z,28.10
2018-02-07T05:18:07.744Z,28.20
2018-02-07T05:19:07.408Z,27.00
2018-02-07T05:20:07.377Z,29.50
2018-02-07T05:21:07.331Z,28.00
2018-02-07T05:22:07.294Z,29.00
2018-02-07T05:23:07.513Z,29.20
2018-02-07T05:24:07.225Z,30.70
2018-02-07T05:25:07.183Z,32.30
2018-02-07T05:26:07.148Z,34.20
2018-02-07T05:27:07.109Z,36.40
2018-02-07T05:28:07.083Z,28.20
2018-02-07T05:29:07.045Z,29.90
2018-02-07T05:30:07.003Z,29.70
2018-02-07T05:31:06.962Z,30.70
2018-02-07T05:32:06.927Z,30.20
2018-02-07T05:33:06.892Z,33.40
2018-02-07T05:34:06.854Z,30.90
2018-02-07T05:35:07.065Z,29.80
2018-02-07T05:36:06.774Z,32.10
2018-02-07T05:37:06.734Z,29.70
2018-02-07T05:38:06.697Z,31.20
2018-02-07T05:39:06.673Z,30.10
2018-02-07T05:40:06.640Z,29.00
2018-02-07T05:41:06.589Z,33.40
2018-02-07T05:42:06.558Z,29.10
2018-02-07T05:43:06.521Z,28.50
2018-02-07T05:44:06.479Z,29.60
2018-02-07T05:45:06.443Z,29.10
2018-02-07T05:46:06.655Z,31.60
2018-02-07T05:47:06.370Z,32.30
2018-02-07T05:48:06.332Z,33.40
2018-02-07T05:49:06.296Z,29.20
2018-02-07T05:50:06.254Z,31.30
2018-02-07T05:51:06.230Z,31.90
2018-02-07T05:52:06.480Z,32.40
2018-02-07T05:53:06.152Z,30.40
2018-02-07T05:54:06.111Z,33.80
2018-02-07T05:55:06.074Z,31.10
2018-02-07T05:56:06.035Z,29.20
2018-02-07T05:57:06.002Z,31.80
2018-02-07T05:58:05.960Z,31.70
2018-02-07T05:59:05.924Z,29.20
2018-02-07T06:00:05.889Z,30.90
2018-02-07T06:01:05.844Z,36.50
2018-02-07T06:02:05.807Z,32.40
2018-02-07T06:03:05.777Z,30.60
2018-02-07T06:04:06.537Z,30.20
2018-02-07T06:05:05.699Z,30.80
2018-02-07T06:06:05.663Z,30.80
2018-02-07T06:07:05.629Z,32.00
2018-02-07T06:08:05.584Z,30.70
2018-02-07T06:09:05.553Z,29.70
2018-02-07T06:10:05.763Z,31.10
2018-02-07T06:11:05.488Z,32.40
2018-02-07T06:12:05.444Z,31.50
2018-02-07T06:13:05.411Z,32.90
2018-02-07T06:14:05.368Z,34.10
2018-02-07T06:15:05.328Z,34.20
2018-02-07T06:16:05.297Z,32.00
2018-02-07T06:17:05.257Z,33.60
2018-02-07T06:18:05.214Z,34.70
2018-02-07T06:19:05.182Z,35.70
2018-02-07T06:20:05.142Z,32.30
2018-02-07T06:21:05.352Z,36.70
2018-02-07T06:22:05.065Z,36.40
2018-02-07T06:23:05.034Z,43.10
2018-02-07T06:24:04.997Z,44.10
2018-02-07T06:25:04.962Z,52.00
2018-02-07T06:26:04.925Z,44.10
2018-02-07T06:27:04.877Z,48.40
2018-02-07T06:28:04.847Z,47.60
2018-02-07T06:29:04.811Z,41.20
2018-02-07T06:30:04.777Z,44.80
2018-02-07T06:31:04.739Z,49.50
2018-02-07T06:32:04.697Z,44.20
2018-02-07T06:33:04.657Z,52.60
2018-02-07T06:34:04.623Z,44.40
2018-02-07T06:35:04.586Z,50.90
2018-02-07T06:36:04.554Z,50.00
2018-02-07T06:37:04.511Z,47.40
2018-02-07T06:38:04.470Z,50.10
2018-02-07T06:39:04.910Z,31.20
2018-02-07T06:40:04.400Z,44.10
2018-02-07T06:41:04.368Z,37.50
2018-02-07T06:42:04.328Z,44.10
2018-02-07T06:43:04.288Z,44.20
2018-02-07T06:44:04.252Z,43.70
2018-02-07T06:45:04.220Z,39.50
2018-02-07T06:46:04.180Z,40.00
2018-02-07T06:47:04.140Z,41.40
2018-02-07T06:48:04.116Z,72.10
2018-02-07T06:49:04.065Z,39.10
2018-02-07T06:50:04.030Z,45.90
2018-02-07T06:51:04.249Z,67.50
2018-02-07T06:52:03.957Z,43.20
2018-02-07T06:53:03.919Z,63.60
2018-02-07T06:54:03.879Z,67.40
2018-02-07T06:55:03.839Z,62.00
2018-02-07T06:56:03.803Z,45.90
2018-02-07T06:57:03.777Z,45.10
2018-02-07T06:58:03.743Z,39.90
2018-02-07T06:59:03.694Z,32.90
2018-02-07T07:00:03.658Z,38.80
2018-02-07T07:01:03.625Z,32.90
2018-02-07T07:02:03.591Z,31.50
2018-02-07T07:03:03.852Z,27.50
2018-02-07T07:04:03.518Z,32.00
2018-02-07T07:05:03.469Z,30.70
2018-02-07T07:06:03.436Z,37.80
2018-02-07T07:07:03.413Z,35.20
2018-02-07T07:08:03.367Z,44.00
2018-02-07T07:09:03.327Z,33.90
2018-02-07T07:10:03.288Z,36.60
2018-02-07T07:11:03.257Z,27.60
2018-02-07T07:12:03.215Z,32.30
2018-02-07T07:13:03.184Z,35.90
2018-02-07T07:14:03.156Z,43.40
2018-02-07T07:15:03.103Z,36.20
2018-02-07T07:16:03.069Z,34.20
2018-02-07T07:17:03.048Z,55.40
2018-02-07T07:18:02.999Z,38.50
2018-02-07T07:19:02.967Z,38.40
2018-02-07T07:20:02.930Z,40.50
2018-02-07T07:21:02.885Z,40.50
2018-02-07T07:22:02.849Z,38.40
2018-02-07T07:23:02.820Z,47.60
2018-02-07T07:24:02.786Z,43.90
2018-02-07T07:25:02.747Z,53.60
2018-02-07T07:26:02.721Z,45.90
2018-02-07T07:27:02.669Z,33.40
2018-02-07T07:28:02.632Z,30.70
2018-02-07T07:29:02.602Z,28.80
2018-02-07T07:30:02.566Z,31.80
2018-02-07T07:31:02.530Z,33.90
2018-02-07T07:32:02.743Z,34.10
2018-02-07T07:33:02.458Z,30.20
2018-02-07T07:34:02.429Z,50.60
2018-02-07T07:35:02.386Z,34.10
2018-02-07T07:36:02.387Z,37.30
2018-02-07T07:37:02.310Z,39.30
2018-02-07T07:38:02.281Z,34.40
2018-02-07T07:39:02.247Z,39.50
2018-02-07T07:40:02.217Z,43.60
2018-02-07T07:41:02.174Z,51.50
2018-02-07T07:42:02.137Z,56.20
2018-02-07T07:43:02.104Z,34.50
2018-02-07T07:44:02.068Z,41.80
2018-02-07T07:45:02.043Z,36.70
2018-02-07T07:46:02.018Z,37.40
2018-02-07T07:47:01.963Z,32.40
2018-02-07T07:48:01.929Z,45.90
2018-02-07T07:49:01.903Z,36.90
2018-02-07T07:50:01.870Z,42.80
2018-02-07T07:51:01.840Z,42.00
2018-02-07T07:52:01.795Z,30.60
2018-02-07T07:53:01.758Z,28.10
2018-02-07T07:54:01.725Z,33.10
2018-02-07T07:55:01.691Z,30.40
2018-02-07T07:56:01.656Z,42.40
2018-02-07T07:57:01.625Z,42.40
2018-02-07T07:58:01.606Z,33.30
2018-02-07T07:59:01.559Z,32.00
2018-02-07T08:00:01.521Z,34.50
2018-02-07T08:01:01.488Z,34.70
2018-02-07T08:02:01.454Z,35.30
2018-02-07T08:03:01.424Z,25.40
2018-02-07T08:04:01.398Z,39.50
2018-02-07T08:05:01.357Z,26.80
2018-02-07T08:06:01.328Z,24.40
2018-02-07T08:07:01.290Z,25.10
2018-02-07T08:08:01.256Z,23.70
2018-02-07T08:09:01.227Z,23.70
2018-02-07T08:10:01.187Z,21.50
2018-02-07T08:11:01.163Z,28.20
2018-02-07T08:12:01.118Z,25.30
2018-02-07T08:13:01.391Z,22.50
2018-02-07T08:14:01.075Z,23.00
2018-02-07T08:15:01.031Z,24.50
2018-02-07T08:16:00.998Z,26.10
2018-02-07T08:17:00.964Z,23.50
2018-02-07T08:18:00.924Z,23.80
2018-02-07T08:19:00.894Z,24.80
2018-02-07T08:20:00.868Z,27.20
2018-02-07T08:21:00.825Z,21.00
2018-02-07T08:22:00.793Z,23.20
2018-02-07T08:23:00.763Z,27.10
2018-02-07T08:24:00.735Z,27.80
2018-02-07T08:25:00.703Z,23.40
2018-02-07T08:26:00.675Z,25.10
2018-02-07T08:27:00.637Z,31.10
2018-02-07T08:28:00.606Z,24.20
2018-02-07T08:29:00.578Z,22.10
2018-02-07T08:30:00.545Z,26.10
2018-02-07T08:31:00.888Z,25.10
2018-02-07T08:32:00.489Z,24.30
2018-02-07T08:33:00.457Z,22.10
2018-02-07T08:34:00.426Z,24.30
2018-02-07T08:35:00.396Z,23.50
2018-02-07T08:36:00.364Z,26.50
2018-02-07T08:37:00.326Z,26.60
2018-02-07T08:38:00.298Z,20.30
2018-02-07T08:39:00.272Z,23.80
2018-02-07T08:40:00.236Z,25.40
2018-02-07T08:41:00.204Z,24.30
2018-02-07T08:42:00.177Z,22.40
2018-02-07T08:43:00.161Z,21.10
2018-02-07T08:44:00.117Z,21.40
2018-02-07T08:45:00.088Z,20.80
2018-02-07T08:46:00.060Z,22.90
2018-02-07T08:47:00.041Z,21.80
2018-02-07T08:48:00.004Z,23.00
2018-02-07T08:48:59.961Z,26.00
2018-02-07T08:49:59.931Z,23.90
2018-02-07T08:50:59.902Z,22.70
2018-02-07T08:51:59.874Z,20.80
2018-02-07T08:52:59.843Z,24.00
2018-02-07T08:53:59.811Z,21.50
2018-02-07T08:54:59.781Z,20.50
2018-02-07T08:55:59.758Z,22.10
2018-02-07T08:56:59.732Z,23.90
2018-02-07T08:57:59.701Z,23.10
2018-02-07T08:58:59.670Z,22.70
2018-02-07T08:59:59.634Z,20.40
2018-02-07T09:00:59.606Z,24.00
2018-02-07T09:01:59.580Z,24.10
2018-02-07T09:02:59.553Z,20.50
2018-02-07T09:03:59.522Z,24.60
2018-02-07T09:04:59.495Z,24.60
2018-02-07T09:05:59.459Z,23.90
2018-02-07T09:06:59.439Z,20.60
2018-02-07T09:07:59.410Z,22.30
2018-02-07T09:08:59.372Z,25.40
2018-02-07T09:09:59.353Z,22.50
2018-02-07T09:10:59.319Z,23.90
2018-02-07T09:11:59.287Z,23.70
2018-02-07T09:12:59.267Z,21.40
2018-02-07T09:13:59.236Z,21.50
2018-02-07T09:14:59.204Z,21.40
2018-02-07T09:15:59.187Z,19.20
2018-02-07T09:16:59.154Z,21.20
2018-02-07T09:17:59.128Z,23.40
2018-02-07T09:18:59.102Z,22.20
2018-02-07T09:19:59.066Z,18.60
2018-02-07T09:20:59.036Z,20.80
2018-02-07T09:21:59.009Z,23.20
2018-02-07T09:22:58.983Z,21.60
2018-02-07T09:23:58.952Z,24.10
2018-02-07T09:24:58.932Z,29.40
2018-02-07T09:25:58.893Z,35.00
2018-02-07T09:26:58.869Z,23.70
2018-02-07T09:27:58.836Z,26.50
2018-02-07T09:28:58.821Z,25.80
2018-02-07T09:29:58.786Z,22.60
2018-02-07T09:30:58.757Z,22.70
2018-02-07T09:31:58.723Z,22.20
2018-02-07T09:32:58.702Z,21.30
2018-02-07T09:33:58.680Z,21.50
2018-02-07T09:34:58.946Z,19.70
2018-02-07T09:35:58.639Z,21.40
2018-02-07T09:36:58.597Z,22.80
2018-02-07T09:37:58.562Z,21.00
2018-02-07T09:38:58.544Z,23.40
2018-02-07T09:39:58.509Z,22.80
2018-02-07T09:40:58.482Z,24.60
2018-02-07T09:41:58.450Z,18.90
2018-02-07T09:42:58.422Z,26.20
2018-02-07T09:43:58.399Z,24.90
2018-02-07T09:44:58.371Z,23.10
2018-02-07T09:45:58.348Z,23.90
2018-02-07T09:46:58.328Z,20.60
2018-02-07T09:47:58.287Z,20.50
2018-02-07T09:48:58.264Z,25.90
2018-02-07T09:49:58.238Z,19.50
2018-02-07T09:50:58.212Z,21.40
2018-02-07T09:51:58.178Z,17.30
2018-02-07T09:52:58.165Z,22.30
2018-02-07T09:53:58.128Z,19.00
2018-02-07T09:54:58.105Z,18.90
2018-02-07T09:55:58.093Z,19.70
2018-02-07T09:56:58.044Z,22.10
2018-02-07T09:57:58.020Z,21.60
2018-02-07T09:58:57.994Z,20.10
2018-02-07T09:59:57.970Z,21.30
2018-02-07T10:00:57.939Z,20.90
2018-02-07T10:01:57.919Z,19.60
2018-02-07T10:02:57.892Z,20.60
2018-02-07T10:03:58.162Z,19.50
2018-02-07T10:04:57.826Z,18.10
2018-02-07T10:05:57.818Z,19.80
2018-02-07T10:06:57.776Z,19.90
2018-02-07T10:07:57.758Z,18.30
2018-02-07T10:08:57.730Z,21.10
2018-02-07T10:09:57.702Z,15.90
2018-02-07T10:10:57.668Z,16.80
2018-02-07T10:11:57.641Z,17.60
2018-02-07T10:12:57.619Z,16.00
2018-02-07T10:13:57.590Z,17.50
2018-02-07T10:14:57.564Z,17.90
2018-02-07T10:15:57.540Z,17.00
2018-02-07T10:16:57.507Z,23.50
2018-02-07T10:17:57.479Z,23.90
2018-02-07T10:18:57.462Z,22.40
2018-02-07T10:19:57.440Z,19.20
2018-02-07T10:20:57.401Z,19.70
2018-02-07T10:21:57.371Z,18.10
2018-02-07T10:22:57.345Z,17.00
2018-02-07T10:23:57.323Z,18.40
2018-02-07T10:24:57.300Z,21.70
2018-02-07T10:25:57.275Z,20.10
2018-02-07T10:26:57.243Z,24.40
2018-02-07T10:27:57.217Z,25.20
2018-02-07T10:28:57.193Z,18.70
2018-02-07T10:29:57.163Z,19.30
2018-02-07T10:30:57.137Z,26.10
2018-02-07T10:31:57.105Z,28.00
2018-02-07T10:32:57.430Z,22.40
2018-02-07T10:33:57.064Z,18.30
2018-02-07T10:34:57.038Z,24.80
2018-02-07T10:35:57.004Z,19.40
2018-02-07T10:36:56.972Z,25.00
2018-02-07T10:37:56.943Z,22.40
2018-02-07T10:38:56.955Z,17.30
2018-02-07T10:39:56.890Z,16.10
2018-02-07T10:40:56.868Z,18.60
2018-02-07T10:41:56.844Z,18.40
2018-02-07T10:42:56.812Z,17.10
2018-02-07T10:43:56.786Z,17.30
2018-02-07T10:44:56.760Z,19.10
2018-02-07T10:45:56.741Z,17.40
2018-02-07T10:46:56.723Z,16.70
2018-02-07T10:47:56.690Z,19.40
2018-02-07T10:48:56.654Z,26.60
2018-02-07T10:49:56.620Z,22.50
2018-02-07T10:50:56.605Z,18.40
2018-02-07T10:51:56.582Z,19.10
2018-02-07T10:52:56.547Z,16.80
2018-02-07T10:53:56.515Z,19.60
2018-02-07T10:54:56.486Z,19.00
2018-02-07T10:55:56.531Z,27.40
2018-02-07T10:56:56.434Z,34.00
2018-02-07T10:57:56.436Z,16.90
2018-02-07T10:58:56.414Z,21.30
2018-02-07T10:59:56.377Z,17.60
2018-02-07T11:00:56.347Z,15.30
2018-02-07T11:01:56.306Z,18.50
2018-02-07T11:02:56.284Z,22.20
2018-02-07T11:03:56.240Z,16.90
2018-02-07T11:04:56.254Z,15.90
2018-02-07T11:05:56.185Z,14.90
2018-02-07T11:06:56.197Z,17.30
2018-02-07T11:07:56.164Z,15.00
2018-02-07T11:08:56.135Z,16.40
2018-02-07T11:09:56.082Z,17.00
2018-02-07T11:10:56.052Z,19.20
2018-02-07T11:11:56.025Z,15.80
2018-02-07T11:12:56.059Z,15.50
2018-02-07T11:13:55.970Z,15.40
2018-02-07T11:14:55.948Z,14.50
2018-02-07T11:15:55.919Z,13.90
2018-02-07T11:16:55.900Z,19.30
2018-02-07T11:17:55.881Z,19.20
2018-02-07T11:18:55.858Z,15.80
2018-02-07T11:19:55.817Z,23.30
2018-02-07T11:20:55.784Z,15.60
2018-02-07T11:21:55.753Z,15.50
2018-02-07T11:22:55.735Z,14.30
2018-02-07T11:23:55.714Z,21.10
2018-02-07T11:24:55.676Z,18.20
2018-02-07T11:25:55.656Z,18.30
2018-02-07T11:26:55.654Z,16.60
2018-02-07T11:27:55.612Z,17.50
2018-02-07T11:28:55.596Z,18.40
2018-02-07T11:29:55.557Z,17.00
2018-02-07T11:30:55.525Z,16.60
2018-02-07T11:31:55.494Z,21.20
2018-02-07T11:32:55.487Z,21.00
2018-02-07T11:33:55.452Z,21.60
2018-02-07T11:34:55.423Z,18.60
2018-02-07T11:35:55.404Z,19.70
2018-02-07T11:36:55.373Z,22.40
2018-02-07T11:37:55.343Z,16.90
2018-02-07T11:38:55.367Z,18.00
2018-02-07T11:39:55.295Z,18.00
2018-02-07T11:40:55.269Z,17.00
2018-02-07T11:41:55.275Z,17.80
2018-02-07T11:42:55.224Z,17.70
2018-02-07T11:43:55.191Z,16.10
2018-02-07T11:44:55.168Z,14.10
2018-02-07T11:45:55.141Z,18.90
2018-02-07T11:46:55.125Z,19.00
2018-02-07T11:47:55.100Z,20.20
2018-02-07T11:48:55.066Z,18.00
2018-02-07T11:49:55.050Z,18.90
2018-02-07T11:50:55.017Z,18.90
2018-02-07T11:51:54.991Z,19.20
2018-02-07T11:52:54.961Z,20.50
2018-02-07T11:53:54.937Z,16.40
2018-02-07T11:54:54.916Z,23.30
2018-02-07T11:55:54.891Z,16.10
2018-02-07T11:56:54.860Z,14.90
2018-02-07T11:57:54.835Z,21.00
2018-02-07T11:58:54.814Z,18.50
2018-02-07T11:59:54.791Z,18.10
2018-02-07T12:00:54.763Z,18.00
2018-02-07T12:01:54.737Z,16.50
2018-02-07T12:02:54.707Z,18.70
2018-02-07T12:03:54.684Z,18.00
2018-02-07T12:04:54.660Z,19.10
2018-02-07T12:05:54.640Z,17.20
2018-02-07T12:06:54.614Z,16.10
2018-02-07T12:07:54.600Z,21.30
2018-02-07T12:08:54.561Z,20.40
2018-02-07T12:09:54.537Z,19.90
2018-02-07T12:10:54.510Z,16.20
2018-02-07T12:11:54.484Z,20.20
2018-02-07T12:12:54.461Z,17.40
2018-02-07T12:13:54.438Z,18.10
2018-02-07T12:14:54.409Z,19.80
2018-02-07T12:15:54.388Z,19.00
2018-02-07T12:16:54.400Z,17.20
2018-02-07T12:17:54.579Z,23.80
2018-02-07T12:18:54.320Z,35.70
2018-02-07T12:19:54.288Z,22.80
2018-02-07T12:20:54.259Z,20.90
2018-02-07T12:21:54.276Z,18.50
2018-02-07T12:22:54.218Z,19.80
2018-02-07T12:23:54.184Z,18.20
2018-02-07T12:24:54.164Z,18.40
2018-02-07T12:25:54.153Z,20.50
2018-02-07T12:26:54.107Z,18.60
2018-02-07T12:27:54.087Z,22.10
2018-02-07T12:28:54.073Z,28.80
2018-02-07T12:29:54.039Z,19.70
2018-02-07T12:30:54.015Z,16.70
2018-02-07T12:31:53.992Z,17.00
2018-02-07T12:32:53.962Z,21.20
2018-02-07T12:33:53.950Z,20.80
2018-02-07T12:34:53.914Z,20.00
2018-02-07T12:35:53.890Z,21.60
2018-02-07T12:36:53.859Z,21.10
2018-02-07T12:37:53.840Z,21.80
2018-02-07T12:38:53.813Z,17.20
2018-02-07T12:39:53.849Z,16.30
2018-02-07T12:40:53.770Z,26.50
2018-02-07T12:41:53.749Z,21.70
2018-02-07T12:42:53.720Z,22.80
2018-02-07T12:43:53.696Z,18.50
2018-02-07T12:44:53.710Z,18.60
2018-02-07T12:45:53.646Z,17.60
2018-02-07T12:46:53.650Z,19.00
2018-02-07T12:47:53.618Z,20.70
2018-02-07T12:48:53.589Z,17.70
2018-02-07T12:49:53.573Z,18.00
2018-02-07T12:50:53.539Z,18.00
2018-02-07T12:51:53.499Z,19.60